sensor_id;sensor_type;location;lat;lon;timestamp;temperature;humidity
74946;HTU21D;63509;45.250;38.102;2023-07-30T00:02:00;19.96;64.21
74946;HTU21D;63509;45.250;38.102;2023-07-30T00:04:27;20.00;64.22
74946;HTU21D;63509;45.250;38.102;2023-07-30T00:06:53;20.03;64.21
74946;HTU21D;63509;45.250;38.102;2023-07-30T00:09:19;20.06;64.20
74946;HTU21D;63509;45.250;38.102;2023-07-30T00:11:45;20.09;64.18
74946;HTU21D;63509;45.250;38.102;2023-07-30T00:14:12;20.09;64.20
74946;HTU21D;63509;45.250;38.102;2023-07-30T00:16:38;20.09;64.15
74946;HTU21D;63509;45.250;38.102;2023-07-30T00:19:04;20.09;64.13
74946;HTU21D;63509;45.250;38.102;2023-07-30T00:21:31;20.04;64.18
74946;HTU21D;63509;45.250;38.102;2023-07-30T00:23:57;19.99;64.24
74946;HTU21D;63509;45.250;38.102;2023-07-30T00:26:23;19.97;64.25
74946;HTU21D;63509;45.250;38.102;2023-07-30T00:28:52;19.92;64.32
74946;HTU21D;63509;45.250;38.102;2023-07-30T00:31:19;19.89;64.40
74946;HTU21D;63509;45.250;38.102;2023-07-30T00:33:45;19.87;64.47
74946;HTU21D;63509;45.250;38.102;2023-07-30T00:36:11;19.86;64.54
74946;HTU21D;63509;45.250;38.102;2023-07-30T00:38:37;19.84;64.63
74946;HTU21D;63509;45.250;38.102;2023-07-30T00:41:03;19.85;64.67
74946;HTU21D;63509;45.250;38.102;2023-07-30T00:43:30;19.85;64.67
74946;HTU21D;63509;45.250;38.102;2023-07-30T00:45:56;19.84;64.69
74946;HTU21D;63509;45.250;38.102;2023-07-30T00:48:22;19.82;64.72
74946;HTU21D;63509;45.250;38.102;2023-07-30T00:50:48;19.76;64.81
74946;HTU21D;63509;45.250;38.102;2023-07-30T00:53:16;19.72;64.86
74946;HTU21D;63509;45.250;38.102;2023-07-30T00:55:44;19.71;64.96
74946;HTU21D;63509;45.250;38.102;2023-07-30T00:58:10;19.71;65.02
74946;HTU21D;63509;45.250;38.102;2023-07-30T01:00:39;19.71;65.04
74946;HTU21D;63509;45.250;38.102;2023-07-30T01:03:05;19.73;65.08
74946;HTU21D;63509;45.250;38.102;2023-07-30T01:05:31;19.70;65.10
74946;HTU21D;63509;45.250;38.102;2023-07-30T01:07:58;19.67;65.11
74946;HTU21D;63509;45.250;38.102;2023-07-30T01:10:25;19.61;65.13
74946;HTU21D;63509;45.250;38.102;2023-07-30T01:12:52;19.56;65.27
74946;HTU21D;63509;45.250;38.102;2023-07-30T01:15:19;19.51;65.24
74946;HTU21D;63509;45.250;38.102;2023-07-30T01:17:45;19.43;65.28
74946;HTU21D;63509;45.250;38.102;2023-07-30T01:20:11;19.36;65.31
74946;HTU21D;63509;45.250;38.102;2023-07-30T01:22:38;19.27;65.46
74946;HTU21D;63509;45.250;38.102;2023-07-30T01:25:04;19.23;65.52
74946;HTU21D;63509;45.250;38.102;2023-07-30T01:27:33;19.15;65.47
74946;HTU21D;63509;45.250;38.102;2023-07-30T01:30:38;19.11;65.45
74946;HTU21D;63509;45.250;38.102;2023-07-30T01:32:58;19.03;65.69
74946;HTU21D;63509;45.250;38.102;2023-07-30T01:35:28;19.01;65.66
74946;HTU21D;63509;45.250;38.102;2023-07-30T01:37:54;18.98;65.78
74946;HTU21D;63509;45.250;38.102;2023-07-30T01:40:21;18.96;65.75
74946;HTU21D;63509;45.250;38.102;2023-07-30T01:42:49;18.92;65.72
74946;HTU21D;63509;45.250;38.102;2023-07-30T01:45:16;18.85;65.78
74946;HTU21D;63509;45.250;38.102;2023-07-30T01:47:42;18.81;65.79
74946;HTU21D;63509;45.250;38.102;2023-07-30T01:50:09;18.77;65.84
74946;HTU21D;63509;45.250;38.102;2023-07-30T01:52:35;18.77;65.86
74946;HTU21D;63509;45.250;38.102;2023-07-30T01:55:01;18.72;65.91
74946;HTU21D;63509;45.250;38.102;2023-07-30T01:57:28;18.69;66.01
74946;HTU21D;63509;45.250;38.102;2023-07-30T01:59:54;18.70;66.03
74946;HTU21D;63509;45.250;38.102;2023-07-30T02:02:20;18.68;66.03
74946;HTU21D;63509;45.250;38.102;2023-07-30T02:04:46;18.67;66.10
74946;HTU21D;63509;45.250;38.102;2023-07-30T02:07:13;18.68;66.17
74946;HTU21D;63509;45.250;38.102;2023-07-30T02:09:39;18.69;66.13
74946;HTU21D;63509;45.250;38.102;2023-07-30T02:12:05;18.69;66.12
74946;HTU21D;63509;45.250;38.102;2023-07-30T02:14:32;18.70;66.17
74946;HTU21D;63509;45.250;38.102;2023-07-30T02:17:00;18.71;66.20
74946;HTU21D;63509;45.250;38.102;2023-07-30T02:19:26;18.71;66.19
74946;HTU21D;63509;45.250;38.102;2023-07-30T02:21:53;18.71;66.19
74946;HTU21D;63509;45.250;38.102;2023-07-30T02:24:19;18.70;66.11
74946;HTU21D;63509;45.250;38.102;2023-07-30T02:26:45;18.69;66.11
74946;HTU21D;63509;45.250;38.102;2023-07-30T02:29:11;18.69;66.13
74946;HTU21D;63509;45.250;38.102;2023-07-30T02:31:37;18.70;66.16
74946;HTU21D;63509;45.250;38.102;2023-07-30T02:34:03;18.70;66.17
74946;HTU21D;63509;45.250;38.102;2023-07-30T02:36:29;18.71;66.11
74946;HTU21D;63509;45.250;38.102;2023-07-30T02:38:55;18.71;66.07
74946;HTU21D;63509;45.250;38.102;2023-07-30T02:41:22;18.69;66.07
74946;HTU21D;63509;45.250;38.102;2023-07-30T02:43:48;18.68;66.07
74946;HTU21D;63509;45.250;38.102;2023-07-30T02:46:14;18.68;66.11
74946;HTU21D;63509;45.250;38.102;2023-07-30T02:48:40;18.69;66.04
74946;HTU21D;63509;45.250;38.102;2023-07-30T02:51:06;18.69;66.02
74946;HTU21D;63509;45.250;38.102;2023-07-30T02:53:32;18.68;65.99
74946;HTU21D;63509;45.250;38.102;2023-07-30T02:55:58;18.67;66.02
74946;HTU21D;63509;45.250;38.102;2023-07-30T02:58:24;18.68;66.09
74946;HTU21D;63509;45.250;38.102;2023-07-30T03:00:50;18.68;66.09
74946;HTU21D;63509;45.250;38.102;2023-07-30T03:03:16;18.70;66.11
74946;HTU21D;63509;45.250;38.102;2023-07-30T03:05:43;18.72;66.06
74946;HTU21D;63509;45.250;38.102;2023-07-30T03:08:09;18.72;66.08
74946;HTU21D;63509;45.250;38.102;2023-07-30T03:10:39;18.73;65.97
74946;HTU21D;63509;45.250;38.102;2023-07-30T03:13:05;18.76;66.04
74946;HTU21D;63509;45.250;38.102;2023-07-30T03:15:31;18.77;66.04
74946;HTU21D;63509;45.250;38.102;2023-07-30T03:17:57;18.80;66.03
74946;HTU21D;63509;45.250;38.102;2023-07-30T03:20:24;18.81;66.03
74946;HTU21D;63509;45.250;38.102;2023-07-30T03:22:50;18.82;66.01
74946;HTU21D;63509;45.250;38.102;2023-07-30T03:25:16;18.84;66.03
74946;HTU21D;63509;45.250;38.102;2023-07-30T03:27:42;18.86;66.05
74946;HTU21D;63509;45.250;38.102;2023-07-30T03:30:08;18.88;66.07
74946;HTU21D;63509;45.250;38.102;2023-07-30T03:32:35;18.94;66.09
74946;HTU21D;63509;45.250;38.102;2023-07-30T03:35:01;18.99;66.10
74946;HTU21D;63509;45.250;38.102;2023-07-30T03:37:27;19.02;66.06
74946;HTU21D;63509;45.250;38.102;2023-07-30T03:39:53;19.05;66.07
74946;HTU21D;63509;45.250;38.102;2023-07-30T03:42:19;19.09;66.13
74946;HTU21D;63509;45.250;38.102;2023-07-30T03:44:47;19.13;66.10
74946;HTU21D;63509;45.250;38.102;2023-07-30T03:47:13;19.18;66.12
74946;HTU21D;63509;45.250;38.102;2023-07-30T03:49:39;19.27;66.15
74946;HTU21D;63509;45.250;38.102;2023-07-30T03:52:06;19.32;66.15
74946;HTU21D;63509;45.250;38.102;2023-07-30T03:54:33;19.37;66.14
74946;HTU21D;63509;45.250;38.102;2023-07-30T03:56:59;19.41;66.20
74946;HTU21D;63509;45.250;38.102;2023-07-30T03:59:26;19.47;66.26
74946;HTU21D;63509;45.250;38.102;2023-07-30T04:01:54;19.53;66.35
74946;HTU21D;63509;45.250;38.102;2023-07-30T04:04:21;19.60;66.42
74946;HTU21D;63509;45.250;38.102;2023-07-30T04:06:47;19.67;66.56
74946;HTU21D;63509;45.250;38.102;2023-07-30T04:09:13;19.76;66.63
74946;HTU21D;63509;45.250;38.102;2023-07-30T04:11:39;19.85;66.73
74946;HTU21D;63509;45.250;38.102;2023-07-30T04:14:05;19.96;66.88
74946;HTU21D;63509;45.250;38.102;2023-07-30T04:16:33;20.09;66.95
74946;HTU21D;63509;45.250;38.102;2023-07-30T04:18:59;20.20;67.14
74946;HTU21D;63509;45.250;38.102;2023-07-30T04:21:25;20.34;67.05
74946;HTU21D;63509;45.250;38.102;2023-07-30T04:23:52;20.48;67.14
74946;HTU21D;63509;45.250;38.102;2023-07-30T04:26:18;20.63;67.32
74946;HTU21D;63509;45.250;38.102;2023-07-30T04:28:44;20.80;67.33
74946;HTU21D;63509;45.250;38.102;2023-07-30T04:31:11;20.95;67.53
74946;HTU21D;63509;45.250;38.102;2023-07-30T04:33:37;21.11;67.49
74946;HTU21D;63509;45.250;38.102;2023-07-30T04:36:03;21.30;67.43
74946;HTU21D;63509;45.250;38.102;2023-07-30T04:38:29;21.48;67.31
74946;HTU21D;63509;45.250;38.102;2023-07-30T04:40:58;21.64;67.30
74946;HTU21D;63509;45.250;38.102;2023-07-30T04:43:24;21.83;67.24
74946;HTU21D;63509;45.250;38.102;2023-07-30T04:45:55;22.01;67.10
74946;HTU21D;63509;45.250;38.102;2023-07-30T04:48:22;22.21;67.07
74946;HTU21D;63509;45.250;38.102;2023-07-30T04:50:49;22.39;66.91
74946;HTU21D;63509;45.250;38.102;2023-07-30T04:53:15;22.61;66.75
74946;HTU21D;63509;45.250;38.102;2023-07-30T04:55:43;22.78;66.62
74946;HTU21D;63509;45.250;38.102;2023-07-30T04:58:09;22.99;66.48
74946;HTU21D;63509;45.250;38.102;2023-07-30T05:00:36;23.21;66.45
74946;HTU21D;63509;45.250;38.102;2023-07-30T05:03:02;23.44;66.39
74946;HTU21D;63509;45.250;38.102;2023-07-30T05:05:29;23.66;66.09
74946;HTU21D;63509;45.250;38.102;2023-07-30T05:07:55;23.85;65.95
74946;HTU21D;63509;45.250;38.102;2023-07-30T05:10:21;24.04;65.76
74946;HTU21D;63509;45.250;38.102;2023-07-30T05:12:47;24.26;65.70
74946;HTU21D;63509;45.250;38.102;2023-07-30T05:15:13;24.48;65.60
74946;HTU21D;63509;45.250;38.102;2023-07-30T05:17:39;24.70;65.35
74946;HTU21D;63509;45.250;38.102;2023-07-30T05:20:06;24.92;65.09
74946;HTU21D;63509;45.250;38.102;2023-07-30T05:22:32;25.14;64.86
74946;HTU21D;63509;45.250;38.102;2023-07-30T05:24:58;25.34;64.72
74946;HTU21D;63509;45.250;38.102;2023-07-30T05:27:24;25.53;64.53
74946;HTU21D;63509;45.250;38.102;2023-07-30T05:29:53;25.77;64.24
74946;HTU21D;63509;45.250;38.102;2023-07-30T05:32:19;25.99;64.05
74946;HTU21D;63509;45.250;38.102;2023-07-30T05:34:45;26.25;63.85
74946;HTU21D;63509;45.250;38.102;2023-07-30T05:37:12;26.48;63.52
74946;HTU21D;63509;45.250;38.102;2023-07-30T05:39:38;26.70;63.22
74946;HTU21D;63509;45.250;38.102;2023-07-30T05:42:04;26.90;62.92
74946;HTU21D;63509;45.250;38.102;2023-07-30T05:44:30;27.12;62.97
74946;HTU21D;63509;45.250;38.102;2023-07-30T05:46:56;27.42;62.63
74946;HTU21D;63509;45.250;38.102;2023-07-30T05:49:22;27.72;62.05
74946;HTU21D;63509;45.250;38.102;2023-07-30T05:51:48;28.00;61.84
74946;HTU21D;63509;45.250;38.102;2023-07-30T05:54:14;28.30;61.24
74946;HTU21D;63509;45.250;38.102;2023-07-30T05:56:40;28.47;60.84
74946;HTU21D;63509;45.250;38.102;2023-07-30T05:59:06;28.64;60.50
74946;HTU21D;63509;45.250;38.102;2023-07-30T06:01:33;28.78;60.22
74946;HTU21D;63509;45.250;38.102;2023-07-30T06:03:59;29.01;60.07
74946;HTU21D;63509;45.250;38.102;2023-07-30T06:06:26;29.28;59.74
74946;HTU21D;63509;45.250;38.102;2023-07-30T06:08:55;29.51;59.21
74946;HTU21D;63509;45.250;38.102;2023-07-30T06:11:21;29.73;59.01
74946;HTU21D;63509;45.250;38.102;2023-07-30T06:13:47;29.98;58.61
74946;HTU21D;63509;45.250;38.102;2023-07-30T06:16:14;30.17;58.22
74946;HTU21D;63509;45.250;38.102;2023-07-30T06:18:40;30.38;57.83
74946;HTU21D;63509;45.250;38.102;2023-07-30T06:21:06;30.61;57.48
74946;HTU21D;63509;45.250;38.102;2023-07-30T06:23:32;30.84;57.02
74946;HTU21D;63509;45.250;38.102;2023-07-30T06:25:58;31.06;56.67
74946;HTU21D;63509;45.250;38.102;2023-07-30T06:28:24;31.26;56.16
74946;HTU21D;63509;45.250;38.102;2023-07-30T06:30:51;31.40;55.88
74946;HTU21D;63509;45.250;38.102;2023-07-30T06:33:17;31.58;55.58
74946;HTU21D;63509;45.250;38.102;2023-07-30T06:35:43;31.81;55.01
74946;HTU21D;63509;45.250;38.102;2023-07-30T06:38:09;32.03;54.81
74946;HTU21D;63509;45.250;38.102;2023-07-30T06:40:35;32.29;54.21
74946;HTU21D;63509;45.250;38.102;2023-07-30T06:43:01;32.46;53.38
74946;HTU21D;63509;45.250;38.102;2023-07-30T06:45:28;32.56;52.88
74946;HTU21D;63509;45.250;38.102;2023-07-30T06:47:54;32.68;52.64
74946;HTU21D;63509;45.250;38.102;2023-07-30T06:50:20;32.86;52.32
74946;HTU21D;63509;45.250;38.102;2023-07-30T06:52:46;33.03;51.91
74946;HTU21D;63509;45.250;38.102;2023-07-30T06:55:12;33.25;51.53
74946;HTU21D;63509;45.250;38.102;2023-07-30T06:57:38;33.40;50.85
74946;HTU21D;63509;45.250;38.102;2023-07-30T07:00:05;33.45;50.26
74946;HTU21D;63509;45.250;38.102;2023-07-30T07:02:31;33.52;49.80
74946;HTU21D;63509;45.250;38.102;2023-07-30T07:04:58;33.53;49.45
74946;HTU21D;63509;45.250;38.102;2023-07-30T07:07:24;33.60;49.15
74946;HTU21D;63509;45.250;38.102;2023-07-30T07:09:51;33.62;48.78
74946;HTU21D;63509;45.250;38.102;2023-07-30T07:12:17;33.66;48.79
74946;HTU21D;63509;45.250;38.102;2023-07-30T07:14:43;33.88;48.59
74946;HTU21D;63509;45.250;38.102;2023-07-30T07:17:10;34.16;48.05
74946;HTU21D;63509;45.250;38.102;2023-07-30T07:19:36;34.32;47.31
74946;HTU21D;63509;45.250;38.102;2023-07-30T07:22:05;34.23;47.04
74946;HTU21D;63509;45.250;38.102;2023-07-30T07:24:32;33.96;46.47
74946;HTU21D;63509;45.250;38.102;2023-07-30T07:26:58;33.63;46.36
74946;HTU21D;63509;45.250;38.102;2023-07-30T07:29:24;33.20;46.59
74946;HTU21D;63509;45.250;38.102;2023-07-30T07:31:50;32.90;46.84
74946;HTU21D;63509;45.250;38.102;2023-07-30T07:34:16;32.70;47.12
74946;HTU21D;63509;45.250;38.102;2023-07-30T07:36:42;32.53;47.19
74946;HTU21D;63509;45.250;38.102;2023-07-30T07:39:08;32.41;47.19
74946;HTU21D;63509;45.250;38.102;2023-07-30T07:41:34;32.31;47.07
74946;HTU21D;63509;45.250;38.102;2023-07-30T07:44:01;32.31;46.93
74946;HTU21D;63509;45.250;38.102;2023-07-30T07:46:27;32.30;46.80
74946;HTU21D;63509;45.250;38.102;2023-07-30T07:48:53;32.25;46.63
74946;HTU21D;63509;45.250;38.102;2023-07-30T07:51:19;32.18;46.47
74946;HTU21D;63509;45.250;38.102;2023-07-30T07:53:45;32.17;46.46
74946;HTU21D;63509;45.250;38.102;2023-07-30T07:56:12;32.17;46.31
74946;HTU21D;63509;45.250;38.102;2023-07-30T07:58:38;32.12;46.19
74946;HTU21D;63509;45.250;38.102;2023-07-30T08:01:04;32.04;46.12
74946;HTU21D;63509;45.250;38.102;2023-07-30T08:03:30;31.95;46.17
74946;HTU21D;63509;45.250;38.102;2023-07-30T08:05:56;31.89;46.17
74946;HTU21D;63509;45.250;38.102;2023-07-30T08:08:25;31.75;46.19
74946;HTU21D;63509;45.250;38.102;2023-07-30T08:10:51;31.68;46.22
74946;HTU21D;63509;45.250;38.102;2023-07-30T08:13:17;31.65;46.22
74946;HTU21D;63509;45.250;38.102;2023-07-30T08:15:43;31.64;46.30
74946;HTU21D;63509;45.250;38.102;2023-07-30T08:18:09;31.72;46.15
74946;HTU21D;63509;45.250;38.102;2023-07-30T08:20:36;31.79;45.85
74946;HTU21D;63509;45.250;38.102;2023-07-30T08:23:02;31.71;45.67
74946;HTU21D;63509;45.250;38.102;2023-07-30T08:25:28;31.57;45.62
74946;HTU21D;63509;45.250;38.102;2023-07-30T08:27:54;31.39;45.67
74946;HTU21D;63509;45.250;38.102;2023-07-30T08:30:20;31.22;45.79
74946;HTU21D;63509;45.250;38.102;2023-07-30T08:32:46;31.11;45.99
74946;HTU21D;63509;45.250;38.102;2023-07-30T08:35:13;31.12;46.32
74946;HTU21D;63509;45.250;38.102;2023-07-30T08:37:39;31.34;46.54
74946;HTU21D;63509;45.250;38.102;2023-07-30T08:40:07;31.67;46.37
74946;HTU21D;63509;45.250;38.102;2023-07-30T08:42:33;31.96;46.19
74946;HTU21D;63509;45.250;38.102;2023-07-30T08:45:00;32.26;46.06
74946;HTU21D;63509;45.250;38.102;2023-07-30T08:47:26;32.66;45.77
74946;HTU21D;63509;45.250;38.102;2023-07-30T08:49:52;33.11;45.22
74946;HTU21D;63509;45.250;38.102;2023-07-30T08:52:18;33.43;44.63
74946;HTU21D;63509;45.250;38.102;2023-07-30T08:54:47;33.61;44.16
74946;HTU21D;63509;45.250;38.102;2023-07-30T08:57:16;33.71;43.85
74946;HTU21D;63509;45.250;38.102;2023-07-30T09:00:03;33.77;43.76
74946;HTU21D;63509;45.250;38.102;2023-07-30T09:02:38;33.71;43.14
74946;HTU21D;63509;45.250;38.102;2023-07-30T09:05:05;33.57;42.85
74946;HTU21D;63509;45.250;38.102;2023-07-30T09:07:31;33.48;42.94
74946;HTU21D;63509;45.250;38.102;2023-07-30T09:09:58;33.47;43.06
74946;HTU21D;63509;45.250;38.102;2023-07-30T09:12:31;33.59;43.10
74946;HTU21D;63509;45.250;38.102;2023-07-30T09:14:57;33.63;42.54
74946;HTU21D;63509;45.250;38.102;2023-07-30T09:17:23;33.78;42.41
74946;HTU21D;63509;45.250;38.102;2023-07-30T09:19:51;33.96;41.97
74946;HTU21D;63509;45.250;38.102;2023-07-30T09:22:30;34.20;42.07
74946;HTU21D;63509;45.250;38.102;2023-07-30T09:25:02;34.37;41.79
74946;HTU21D;63509;45.250;38.102;2023-07-30T09:27:29;34.60;41.31
74946;HTU21D;63509;45.250;38.102;2023-07-30T09:29:56;34.68;40.99
74946;HTU21D;63509;45.250;38.102;2023-07-30T09:32:30;34.68;40.93
74946;HTU21D;63509;45.250;38.102;2023-07-30T09:35:14;34.56;40.89
74946;HTU21D;63509;45.250;38.102;2023-07-30T09:37:41;34.30;40.59
74946;HTU21D;63509;45.250;38.102;2023-07-30T09:40:09;34.06;40.70
74946;HTU21D;63509;45.250;38.102;2023-07-30T09:42:36;33.79;40.73
74946;HTU21D;63509;45.250;38.102;2023-07-30T09:45:06;33.53;40.96
74946;HTU21D;63509;45.250;38.102;2023-07-30T09:47:38;33.30;41.36
74946;HTU21D;63509;45.250;38.102;2023-07-30T09:50:04;33.17;41.54
74946;HTU21D;63509;45.250;38.102;2023-07-30T09:52:31;33.27;41.70
74946;HTU21D;63509;45.250;38.102;2023-07-30T09:55:00;33.48;41.68
74946;HTU21D;63509;45.250;38.102;2023-07-30T09:57:26;33.74;41.45
74946;HTU21D;63509;45.250;38.102;2023-07-30T09:59:52;34.09;40.91
74946;HTU21D;63509;45.250;38.102;2023-07-30T10:02:19;34.38;40.83
74946;HTU21D;63509;45.250;38.102;2023-07-30T10:04:49;34.81;40.65
74946;HTU21D;63509;45.250;38.102;2023-07-30T10:07:19;35.19;40.32
74946;HTU21D;63509;45.250;38.102;2023-07-30T10:09:46;35.64;39.74
74946;HTU21D;63509;45.250;38.102;2023-07-30T10:12:16;36.11;39.16
74946;HTU21D;63509;45.250;38.102;2023-07-30T10:14:44;36.42;38.42
74946;HTU21D;63509;45.250;38.102;2023-07-30T10:17:11;36.55;37.92
74946;HTU21D;63509;45.250;38.102;2023-07-30T10:19:37;36.56;37.61
74946;HTU21D;63509;45.250;38.102;2023-07-30T10:24:39;36.62;37.41
74946;HTU21D;63509;45.250;38.102;2023-07-30T10:27:06;36.56;37.24
74946;HTU21D;63509;45.250;38.102;2023-07-30T10:29:35;36.34;37.37
74946;HTU21D;63509;45.250;38.102;2023-07-30T10:32:05;36.11;37.33
74946;HTU21D;63509;45.250;38.102;2023-07-30T10:34:47;35.82;37.80
74946;HTU21D;63509;45.250;38.102;2023-07-30T10:37:21;35.48;38.01
74946;HTU21D;63509;45.250;38.102;2023-07-30T10:39:50;35.20;37.96
74946;HTU21D;63509;45.250;38.102;2023-07-30T10:42:16;34.91;38.04
74946;HTU21D;63509;45.250;38.102;2023-07-30T10:44:44;34.68;38.43
74946;HTU21D;63509;45.250;38.102;2023-07-30T10:47:11;34.56;38.59
74946;HTU21D;63509;45.250;38.102;2023-07-30T10:49:40;34.60;38.78
74946;HTU21D;63509;45.250;38.102;2023-07-30T10:52:09;34.77;38.85
74946;HTU21D;63509;45.250;38.102;2023-07-30T10:54:36;34.97;38.79
74946;HTU21D;63509;45.250;38.102;2023-07-30T10:57:03;35.19;38.62
74946;HTU21D;63509;45.250;38.102;2023-07-30T10:59:36;35.33;38.63
74946;HTU21D;63509;45.250;38.102;2023-07-30T11:02:03;35.47;38.33
74946;HTU21D;63509;45.250;38.102;2023-07-30T11:04:33;35.60;38.18
74946;HTU21D;63509;45.250;38.102;2023-07-30T11:07:00;35.64;37.83
74946;HTU21D;63509;45.250;38.102;2023-07-30T11:09:27;35.66;37.61
74946;HTU21D;63509;45.250;38.102;2023-07-30T11:11:55;35.59;37.59
74946;HTU21D;63509;45.250;38.102;2023-07-30T11:14:23;35.60;37.69
74946;HTU21D;63509;45.250;38.102;2023-07-30T11:16:53;35.71;37.62
74946;HTU21D;63509;45.250;38.102;2023-07-30T11:19:20;35.87;37.33
74946;HTU21D;63509;45.250;38.102;2023-07-30T11:21:47;35.98;37.09
74946;HTU21D;63509;45.250;38.102;2023-07-30T11:24:13;35.93;37.95
74946;HTU21D;63509;45.250;38.102;2023-07-30T11:26:40;35.78;37.27
74946;HTU21D;63509;45.250;38.102;2023-07-30T11:29:19;35.62;37.40
74946;HTU21D;63509;45.250;38.102;2023-07-30T11:31:47;35.37;37.30
74946;HTU21D;63509;45.250;38.102;2023-07-30T11:34:14;35.13;37.43
74946;HTU21D;63509;45.250;38.102;2023-07-30T11:36:41;34.84;37.66
74946;HTU21D;63509;45.250;38.102;2023-07-30T11:39:08;34.51;38.47
74946;HTU21D;63509;45.250;38.102;2023-07-30T11:41:35;34.19;38.52
74946;HTU21D;63509;45.250;38.102;2023-07-30T11:44:01;34.03;38.86
74946;HTU21D;63509;45.250;38.102;2023-07-30T11:46:28;34.00;38.93
74946;HTU21D;63509;45.250;38.102;2023-07-30T11:49:14;34.00;39.01
74946;HTU21D;63509;45.250;38.102;2023-07-30T11:51:41;33.85;38.92
74946;HTU21D;63509;45.250;38.102;2023-07-30T11:54:17;33.72;39.03
74946;HTU21D;63509;45.250;38.102;2023-07-30T11:56:44;33.58;39.29
74946;HTU21D;63509;45.250;38.102;2023-07-30T11:59:10;33.59;39.47
74946;HTU21D;63509;45.250;38.102;2023-07-30T12:01:37;33.70;39.56
74946;HTU21D;63509;45.250;38.102;2023-07-30T12:04:05;33.85;39.59
74946;HTU21D;63509;45.250;38.102;2023-07-30T12:06:40;34.07;39.53
74946;HTU21D;63509;45.250;38.102;2023-07-30T12:09:21;34.22;39.32
74946;HTU21D;63509;45.250;38.102;2023-07-30T12:12:01;34.30;39.22
74946;HTU21D;63509;45.250;38.102;2023-07-30T12:14:29;34.35;39.01
74946;HTU21D;63509;45.250;38.102;2023-07-30T12:17:08;34.44;39.01
74946;HTU21D;63509;45.250;38.102;2023-07-30T12:19:34;34.59;38.87
74946;HTU21D;63509;45.250;38.102;2023-07-30T12:22:02;34.76;38.64
74946;HTU21D;63509;45.250;38.102;2023-07-30T12:24:28;34.92;38.39
74946;HTU21D;63509;45.250;38.102;2023-07-30T12:26:54;35.03;38.23
74946;HTU21D;63509;45.250;38.102;2023-07-30T12:29:20;35.14;38.07
74946;HTU21D;63509;45.250;38.102;2023-07-30T12:31:46;35.30;37.91
74946;HTU21D;63509;45.250;38.102;2023-07-30T12:34:13;35.43;37.59
74946;HTU21D;63509;45.250;38.102;2023-07-30T12:36:39;35.58;37.40
74946;HTU21D;63509;45.250;38.102;2023-07-30T12:39:06;35.72;37.17
74946;HTU21D;63509;45.250;38.102;2023-07-30T12:41:33;35.81;37.09
74946;HTU21D;63509;45.250;38.102;2023-07-30T12:43:59;35.90;36.89
74946;HTU21D;63509;45.250;38.102;2023-07-30T12:46:25;35.96;36.71
74946;HTU21D;63509;45.250;38.102;2023-07-30T12:48:56;35.97;36.63
74946;HTU21D;63509;45.250;38.102;2023-07-30T12:51:22;35.99;36.40
74946;HTU21D;63509;45.250;38.102;2023-07-30T12:53:48;36.06;36.18
74946;HTU21D;63509;45.250;38.102;2023-07-30T12:56:16;36.10;36.03
74946;HTU21D;63509;45.250;38.102;2023-07-30T12:58:42;36.12;35.89
74946;HTU21D;63509;45.250;38.102;2023-07-30T13:01:08;36.14;35.77
74946;HTU21D;63509;45.250;38.102;2023-07-30T13:03:34;36.13;35.60
74946;HTU21D;63509;45.250;38.102;2023-07-30T13:06:01;36.12;35.44
74946;HTU21D;63509;45.250;38.102;2023-07-30T13:08:27;36.09;35.32
74946;HTU21D;63509;45.250;38.102;2023-07-30T13:10:53;36.03;35.34
74946;HTU21D;63509;45.250;38.102;2023-07-30T13:13:19;35.98;35.42
74946;HTU21D;63509;45.250;38.102;2023-07-30T13:15:45;35.90;35.35
74946;HTU21D;63509;45.250;38.102;2023-07-30T13:18:12;35.85;35.31
74946;HTU21D;63509;45.250;38.102;2023-07-30T13:20:38;35.81;35.18
74946;HTU21D;63509;45.250;38.102;2023-07-30T13:23:04;35.70;35.11
74946;HTU21D;63509;45.250;38.102;2023-07-30T13:25:30;35.60;35.07
74946;HTU21D;63509;45.250;38.102;2023-07-30T13:27:56;35.49;35.07
74946;HTU21D;63509;45.250;38.102;2023-07-30T13:30:22;35.34;35.11
74946;HTU21D;63509;45.250;38.102;2023-07-30T13:32:48;35.20;35.18
74946;HTU21D;63509;45.250;38.102;2023-07-30T13:35:15;35.05;35.14
74946;HTU21D;63509;45.250;38.102;2023-07-30T13:37:41;34.89;35.22
74946;HTU21D;63509;45.250;38.102;2023-07-30T13:40:07;34.75;35.29
74946;HTU21D;63509;45.250;38.102;2023-07-30T13:42:34;34.59;35.37
74946;HTU21D;63509;45.250;38.102;2023-07-30T13:45:00;34.45;35.52
74946;HTU21D;63509;45.250;38.102;2023-07-30T13:47:26;34.31;35.69
74946;HTU21D;63509;45.250;38.102;2023-07-30T13:49:52;34.17;35.79
74946;HTU21D;63509;45.250;38.102;2023-07-30T13:52:20;34.06;35.92
74946;HTU21D;63509;45.250;38.102;2023-07-30T13:54:46;33.92;36.00
74946;HTU21D;63509;45.250;38.102;2023-07-30T13:57:12;33.81;36.17
74946;HTU21D;63509;45.250;38.102;2023-07-30T13:59:38;33.73;36.21
74946;HTU21D;63509;45.250;38.102;2023-07-30T14:02:05;33.61;36.32
74946;HTU21D;63509;45.250;38.102;2023-07-30T14:04:32;33.51;36.34
74946;HTU21D;63509;45.250;38.102;2023-07-30T14:06:58;33.36;36.42
74946;HTU21D;63509;45.250;38.102;2023-07-30T14:09:24;33.23;36.51
74946;HTU21D;63509;45.250;38.102;2023-07-30T14:11:53;33.09;36.69
74946;HTU21D;63509;45.250;38.102;2023-07-30T14:14:19;32.99;36.72
74946;HTU21D;63509;45.250;38.102;2023-07-30T14:16:47;32.85;36.88
74946;HTU21D;63509;45.250;38.102;2023-07-30T14:19:13;32.74;37.03
74946;HTU21D;63509;45.250;38.102;2023-07-30T14:21:40;32.66;37.12
74946;HTU21D;63509;45.250;38.102;2023-07-30T14:24:06;32.57;37.21
74946;HTU21D;63509;45.250;38.102;2023-07-30T14:26:32;32.47;37.30
74946;HTU21D;63509;45.250;38.102;2023-07-30T14:28:58;32.39;37.43
74946;HTU21D;63509;45.250;38.102;2023-07-30T14:31:24;32.31;37.56
74946;HTU21D;63509;45.250;38.102;2023-07-30T14:33:50;32.25;37.62
74946;HTU21D;63509;45.250;38.102;2023-07-30T14:36:16;32.17;37.70
74946;HTU21D;63509;45.250;38.102;2023-07-30T14:38:42;32.11;37.79
74946;HTU21D;63509;45.250;38.102;2023-07-30T14:41:09;32.03;37.82
74946;HTU21D;63509;45.250;38.102;2023-07-30T14:43:37;31.93;37.88
74946;HTU21D;63509;45.250;38.102;2023-07-30T14:46:03;31.84;37.94
74946;HTU21D;63509;45.250;38.102;2023-07-30T14:48:29;31.74;38.04
74946;HTU21D;63509;45.250;38.102;2023-07-30T14:50:55;31.61;38.10
74946;HTU21D;63509;45.250;38.102;2023-07-30T14:53:22;31.51;38.19
74946;HTU21D;63509;45.250;38.102;2023-07-30T14:55:48;31.38;38.36
74946;HTU21D;63509;45.250;38.102;2023-07-30T14:58:14;31.27;38.46
74946;HTU21D;63509;45.250;38.102;2023-07-30T15:00:41;31.14;38.59
74946;HTU21D;63509;45.250;38.102;2023-07-30T15:03:07;30.99;38.70
74946;HTU21D;63509;45.250;38.102;2023-07-30T15:05:33;30.84;38.83